Time;durP1;ratioP1;P1;durP2;ratioP2;P2;SDS_P1;SDS_P2;PMS_P1;PMS_P2;Temp;Humidity;BMP_temperature;BMP_pressure;BME280_temperature;BME280_humidity;BME280_pressure;Samples;Min_cycle;Max_cycle;Signal;HPM_P1;HPM_P2
2023/05/16 00:01:58;;;;;;;;;;;;;;;12.13;100.00;95877.13;4963274;28;19945;-82
2023/05/16 00:04:26;;;;;;;;;;;;;;;12.08;100.00;95872.44;4966968;28;19922;-82
2023/05/16 00:06:52;;;;;;;;;;;;;;;12.05;100.00;95872.97;4955554;28;19925;-82
2023/05/16 00:09:19;;;;;;;;;;;;;;;12.07;100.00;95870.84;4966527;28;20080;-81
2023/05/16 00:11:49;;;;;;;;;;;;;;;12.09;100.00;95868.66;4975451;28;20169;-82
2023/05/16 00:14:16;;;;;;;;;;;;;;;12.10;100.00;95864.06;4960041;28;19922;-82
2023/05/16 00:16:42;;;;;;;;;;;;;;;12.11;100.00;95869.25;4969214;28;19961;-82
2023/05/16 00:19:09;;;;;;;;;;;;;;;12.07;100.00;95873.53;4953193;28;19934;-82
2023/05/16 00:21:37;;;;;;;;;;;;;;;12.06;100.00;95865.66;4964186;28;19949;-81
2023/05/16 00:24:04;;;;;;;;;;;;;;;12.03;100.00;95864.28;4951746;28;19936;-82
2023/05/16 00:26:31;;;;;;;;;;;;;;;12.03;100.00;95863.44;4962542;28;19930;-82
2023/05/16 00:28:59;;;;;;;;;;;;;;;12.05;100.00;95864.03;4982376;28;19981;-82
2023/05/16 00:31:26;;;;;;;;;;;;;;;11.99;100.00;95860.41;4951706;28;19930;-81
2023/05/16 00:33:53;;;;;;;;;;;;;;;11.98;100.00;95856.09;4966170;28;19922;-81
2023/05/16 00:36:20;;;;;;;;;;;;;;;11.94;100.00;95863.06;4947880;28;19936;-81
2023/05/16 00:38:47;;;;;;;;;;;;;;;11.93;100.00;95853.31;4953823;28;19933;-82
2023/05/16 00:41:14;;;;;;;;;;;;;;;11.90;100.00;95859.25;4942509;28;19930;-82
2023/05/16 00:43:41;;;;;;;;;;;;;;;11.90;100.00;95853.00;4971093;28;19937;-81
2023/05/16 00:46:10;;;;;;;;;;;;;;;11.92;100.00;95854.38;4954963;28;19922;-81
2023/05/16 00:48:36;;;;;;;;;;;;;;;11.90;100.00;95855.72;4966644;28;19928;-81
2023/05/16 00:51:08;;;;;;;;;;;;;;;11.86;100.00;95857.28;4979758;28;19929;-82
2023/05/16 00:53:34;;;;;;;;;;;;;;;11.86;100.00;95858.09;4979702;28;19961;-82
2023/05/16 00:56:03;;;;;;;;;;;;;;;11.86;100.00;95852.69;4987022;28;19957;-82
2023/05/16 00:58:32;;;;;;;;;;;;;;;11.86;100.00;95852.69;4964074;28;19923;-82
2023/05/16 01:01:00;;;;;;;;;;;;;;;11.86;100.00;95849.16;4981533;28;19928;-82
2023/05/16 01:03:29;;;;;;;;;;;;;;;11.83;100.00;95847.75;4969034;28;19930;-82
2023/05/16 01:05:57;;;;;;;;;;;;;;;11.84;100.00;95854.00;4981483;28;20013;-82
2023/05/16 01:08:24;;;;;;;;;;;;;;;11.87;100.00;95854.31;4951014;28;19922;-82
2023/05/16 01:10:58;;;;;;;;;;;;;;;11.88;100.00;95852.44;4966495;28;19922;-82
2023/05/16 01:13:31;;;;;;;;;;;;;;;11.89;100.00;95843.25;4964901;28;19945;-82
2023/05/16 01:16:02;;;;;;;;;;;;;;;11.84;100.00;95838.59;4961313;28;19973;-81
2023/05/16 01:18:37;;;;;;;;;;;;;;;11.81;100.00;95836.41;4984842;28;19949;-82
2023/05/16 01:21:07;;;;;;;;;;;;;;;11.81;100.00;95839.09;4969041;28;20002;-81
2023/05/16 01:23:42;;;;;;;;;;;;;;;11.81;100.00;95833.69;4964071;28;19922;-82
2023/05/16 01:26:16;;;;;;;;;;;;;;;11.81;100.00;95833.69;4985941;28;19922;-82
2023/05/16 01:29:07;;;;;;;;;;;;;;;11.78;100.00;95827.94;5123024;27;19971;-81
2023/05/16 01:31:35;;;;;;;;;;;;;;;11.72;100.00;95825.16;5097156;28;19924;-82
2023/05/16 01:34:02;;;;;;;;;;;;;;;11.73;100.00;95823.28;5100896;28;20010;-81
2023/05/16 01:36:33;;;;;;;;;;;;;;;11.72;100.00;95829.75;5101292;28;19931;-82
2023/05/16 01:39:02;;;;;;;;;;;;;;;11.70;100.00;95821.88;5099080;28;19991;-82
2023/05/16 01:41:35;;;;;;;;;;;;;;;11.67;100.00;95818.84;5100286;28;19966;-81
2023/05/16 01:44:03;;;;;;;;;;;;;;;11.65;100.00;95812.88;5090248;28;20040;-81
2023/05/16 01:46:34;;;;;;;;;;;;;;;11.62;100.00;95816.06;5097600;28;20026;-82
2023/05/16 01:49:07;;;;;;;;;;;;;;;11.60;100.00;95810.91;5100022;28;20019;-81
2023/05/16 01:51:35;;;;;;;;;;;;;;;11.59;100.00;95817.38;5102001;28;19971;-82
2023/05/16 01:54:05;;;;;;;;;;;;;;;11.59;100.00;95809.28;5104260;28;19971;-81
2023/05/16 01:56:33;;;;;;;;;;;;;;;11.54;100.00;95811.09;5093281;28;19938;-81
2023/05/16 01:59:01;;;;;;;;;;;;;;;11.54;100.00;95805.69;5095208;28;20035;-82
2023/05/16 02:01:29;;;;;;;;;;;;;;;11.53;100.00;95798.66;5098886;28;20014;-82
2023/05/16 02:03:59;;;;;;;;;;;;;;;11.49;100.00;95802.91;5097542;28;19924;-82
2023/05/16 02:06:26;;;;;;;;;;;;;;;11.50;100.00;95801.84;5093930;28;19931;-82
2023/05/16 02:08:52;;;;;;;;;;;;;;;11.52;100.00;95797.00;5094513;28;19930;-81
2023/05/16 02:11:21;;;;;;;;;;;;;;;11.53;100.00;95796.75;5099782;28;19950;-82
2023/05/16 02:13:47;;;;;;;;;;;;;;;11.52;100.00;95797.00;5107143;28;19935;-82
2023/05/16 02:16:14;;;;;;;;;;;;;;;11.52;100.00;95805.13;5089547;28;19924;-82
2023/05/16 02:18:41;;;;;;;;;;;;;;;11.49;100.00;95797.50;5077313;28;20031;-82
2023/05/16 02:21:10;;;;;;;;;;;;;;;11.49;100.00;95797.50;5086631;28;19928;-82
2023/05/16 02:23:36;;;;;;;;;;;;;;;11.50;100.00;95794.53;5085557;28;19932;-82
2023/05/16 02:26:03;;;;;;;;;;;;;;;11.50;100.00;95799.94;5076418;28;19924;-82
2023/05/16 02:28:30;;;;;;;;;;;;;;;11.50;100.00;95793.72;5092415;28;19938;-82
2023/05/16 02:30:57;;;;;;;;;;;;;;;11.45;100.00;95799.06;5093433;28;19936;-81
2023/05/16 02:33:25;;;;;;;;;;;;;;;11.40;100.00;95789.00;5096758;28;19935;-82
2023/05/16 02:35:52;;;;;;;;;;;;;;;11.40;100.00;95789.00;5091211;28;19924;-82
2023/05/16 02:38:21;;;;;;;;;;;;;;;11.40;100.00;95790.91;5090453;28;19924;-82
2023/05/16 02:40:48;;;;;;;;;;;;;;;11.42;100.00;95788.75;5081365;28;19925;-82
2023/05/16 02:43:15;;;;;;;;;;;;;;;11.38;100.00;95783.03;5093733;28;19991;-82
2023/05/16 02:45:42;;;;;;;;;;;;;;;11.35;100.00;95787.06;5076513;28;19935;-81
2023/05/16 02:48:09;;;;;;;;;;;;;;;11.29;100.00;95788.06;5079715;28;19951;-81
2023/05/16 02:50:36;;;;;;;;;;;;;;;11.29;100.00;95784.53;5080697;28;19924;-81
2023/05/16 02:53:03;;;;;;;;;;;;;;;11.29;100.00;95785.34;5075311;28;19936;-81
2023/05/16 02:55:32;;;;;;;;;;;;;;;11.35;100.00;95781.66;5079042;28;19936;-82
2023/05/16 02:57:58;;;;;;;;;;;;;;;11.34;100.00;95779.19;5082335;28;19931;-82
2023/05/16 03:00:25;;;;;;;;;;;;;;;11.30;100.00;95776.19;5074657;28;19931;-82
2023/05/16 03:02:52;;;;;;;;;;;;;;;11.29;100.00;95763.72;5076053;28;20019;-81
2023/05/16 03:05:19;;;;;;;;;;;;;;;11.28;100.00;95770.19;5079575;28;19931;-81
2023/05/16 03:07:46;;;;;;;;;;;;;;;11.33;100.00;95774.84;5085119;28;19928;-80
2023/05/16 03:10:13;;;;;;;;;;;;;;;11.34;100.00;95771.91;5086321;28;19924;-80
2023/05/16 03:12:42;;;;;;;;;;;;;;;11.36;100.00;95772.47;5080438;28;19971;-81
2023/05/16 03:15:09;;;;;;;;;;;;;;;11.41;100.00;95776.28;5073995;28;20008;-81
2023/05/16 03:17:36;;;;;;;;;;;;;;;11.40;100.00;95766.56;5074060;28;19931;-81
2023/05/16 03:20:04;;;;;;;;;;;;;;;11.45;100.00;95766.63;5076307;28;19931;-82
2023/05/16 03:22:30;;;;;;;;;;;;;;;11.45;100.00;95764.75;5074797;28;20015;-81
2023/05/16 03:24:57;;;;;;;;;;;;;;;11.47;100.00;95759.91;5081122;28;19931;-82
2023/05/16 03:27:24;;;;;;;;;;;;;;;11.49;100.00;95767.75;5085821;28;19967;-82
2023/05/16 03:29:52;;;;;;;;;;;;;;;11.48;100.00;95758.03;5090876;28;19967;-82
2023/05/16 03:32:19;;;;;;;;;;;;;;;11.53;100.00;95758.09;5082661;28;20026;-81
2023/05/16 03:34:47;;;;;;;;;;;;;;;11.55;100.00;95758.66;5082676;28;19935;-82
2023/05/16 03:37:14;;;;;;;;;;;;;;;11.57;100.00;95761.94;5089005;28;19924;-81
2023/05/16 03:39:41;;;;;;;;;;;;;;;11.54;100.00;95757.84;5088230;28;19927;-81
2023/05/16 03:42:08;;;;;;;;;;;;;;;11.52;100.00;95762.69;5091188;28;20002;-81
2023/05/16 03:44:35;;;;;;;;;;;;;;;11.50;100.00;95756.69;5083975;28;19923;-81
2023/05/16 03:47:04;;;;;;;;;;;;;;;11.49;100.00;95754.25;5086813;28;20015;-81
2023/05/16 03:49:31;;;;;;;;;;;;;;;11.49;100.00;95755.06;5083827;28;19931;-81
2023/05/16 03:51:57;;;;;;;;;;;;;;;11.54;100.00;95762.44;5085924;28;20007;-81
2023/05/16 03:54:24;;;;;;;;;;;;;;;11.55;100.00;95754.09;5090025;28;19970;-81
2023/05/16 03:56:51;;;;;;;;;;;;;;;11.57;100.00;95753.84;5077143;28;19924;-81
2023/05/16 03:59:18;;;;;;;;;;;;;;;11.63;100.00;95759.06;5079931;28;19924;-81
2023/05/16 04:01:45;;;;;;;;;;;;;;;11.64;100.00;95763.41;5076685;28;19975;-81
2023/05/16 04:04:14;;;;;;;;;;;;;;;11.61;100.00;95757.66;5103050;28;19924;-82
2023/05/16 04:06:40;;;;;;;;;;;;;;;11.58;100.00;95763.56;5087229;28;19949;-81
2023/05/16 04:09:08;;;;;;;;;;;;;;;11.57;100.00;95767.34;5090602;28;19930;-82
2023/05/16 04:11:35;;;;;;;;;;;;;;;11.53;100.00;95760.78;5087421;28;20158;-82
2023/05/16 04:14:02;;;;;;;;;;;;;;;11.55;100.00;95764.06;5098480;28;19946;-81
2023/05/16 04:16:28;;;;;;;;;;;;;;;11.49;100.00;95757.75;5086901;28;19924;-81
2023/05/16 04:18:56;;;;;;;;;;;;;;;11.45;100.00;95758.53;5087457;28;19954;-81
2023/05/16 04:21:25;;;;;;;;;;;;;;;11.44;100.00;95763.13;5088948;28;19924;-81
2023/05/16 04:23:52;;;;;;;;;;;;;;;11.43;100.00;95760.66;5100191;28;19967;-81
2023/05/16 04:26:20;;;;;;;;;;;;;;;11.38;100.00;95764.94;5080975;28;19981;-81
2023/05/16 04:28:47;;;;;;;;;;;;;;;11.45;100.00;95767.47;5080830;28;19955;-82
2023/05/16 04:31:14;;;;;;;;;;;;;;;11.46;100.00;95765.56;5099000;28;19927;-81
2023/05/16 04:33:41;;;;;;;;;;;;;;;11.39;100.00;95771.16;5077587;28;19928;-81
2023/05/16 04:36:08;;;;;;;;;;;;;;;11.35;100.00;95770.84;5084222;28;19924;-81
2023/05/16 04:38:36;;;;;;;;;;;;;;;11.39;100.00;95771.16;5086017;28;20006;-81
2023/05/16 04:41:03;;;;;;;;;;;;;;;11.28;100.00;95770.19;5086309;28;19935;-81
2023/05/16 04:43:30;;;;;;;;;;;;;;;11.26;100.00;95777.72;5088449;28;19932;-82
2023/05/16 04:45:58;;;;;;;;;;;;;;;11.28;100.00;95778.31;5085566;28;19924;-81
2023/05/16 04:48:25;;;;;;;;;;;;;;;11.18;100.00;95778.16;5079366;28;19975;-81
2023/05/16 04:50:53;;;;;;;;;;;;;;;11.15;100.00;95775.94;5096867;28;20038;-81
2023/05/16 04:53:20;;;;;;;;;;;;;;;11.14;100.00;95773.50;5084620;28;19924;-82
2023/05/16 04:55:48;;;;;;;;;;;;;;;11.15;100.00;95767.81;5088976;28;20014;-81
2023/05/16 04:58:15;;;;;;;;;;;;;;;11.15;100.00;95778.63;5083759;28;19986;-81
2023/05/16 05:00:42;;;;;;;;;;;;;;;11.12;100.00;95775.63;5085587;28;19932;-82
2023/05/16 05:03:09;;;;;;;;;;;;;;;11.14;100.00;95776.22;5090231;28;19932;-81
2023/05/16 05:05:36;;;;;;;;;;;;;;;11.16;100.00;95782.16;5084510;28;19924;-81
2023/05/16 05:08:03;;;;;;;;;;;;;;;11.18;100.00;95780.03;5078452;28;19931;-82
2023/05/16 05:10:31;;;;;;;;;;;;;;;11.29;100.00;95777.25;5084550;28;19932;-83
2023/05/16 05:12:59;;;;;;;;;;;;;;;11.37;100.00;95789.50;5086180;28;19931;-83
2023/05/16 05:15:26;;;;;;;;;;;;;;;11.49;100.00;95778.56;5089260;28;19994;-83
2023/05/16 05:17:53;;;;;;;;;;;;;;;11.54;100.00;95784.06;5102342;28;19925;-82
2023/05/16 05:20:20;;;;;;;;;;;;;;;11.61;100.00;95790.94;5091974;28;19981;-83
2023/05/16 05:22:47;;;;;;;;;;;;;;;11.67;100.00;95789.09;5098429;28;19924;-81
2023/05/16 05:25:14;;;;;;;;;;;;;;;11.66;100.00;95787.47;5087299;28;19924;-81
2023/05/16 05:27:41;;;;;;;;;;;;;;;11.61;100.00;95787.41;5089651;28;19939;-81
2023/05/16 05:30:10;;;;;;;;;;;;;;;11.56;100.00;95787.34;5084317;28;19959;-82
2023/05/16 05:32:37;;;;;;;;;;;;;;;11.55;100.00;95785.72;5079354;28;19931;-81
2023/05/16 05:35:04;;;;;;;;;;;;;;;11.54;100.00;95789.47;5094956;28;19946;-81
2023/05/16 05:37:31;;;;;;;;;;;;;;;11.57;100.00;95783.56;5080837;28;19995;-81
2023/05/16 05:39:58;;;;;;;;;;;;;;;11.58;100.00;95790.59;5086278;28;20021;-81
2023/05/16 05:42:25;;;;;;;;;;;;;;;11.57;100.00;95794.41;5086551;28;19924;-80
2023/05/16 05:44:52;;;;;;;;;;;;;;;11.60;100.00;95793.88;5084884;28;19932;-81
2023/05/16 05:47:20;;;;;;;;;;;;;;;11.57;100.00;95794.41;5085294;28;20018;-81
2023/05/16 05:49:47;;;;;;;;;;;;;;;11.59;100.00;95797.63;5080716;28;19931;-81
2023/05/16 05:52:14;;;;;;;;;;;;;;;11.62;100.00;95802.56;5084616;28;19932;-81
2023/05/16 05:54:41;;;;;;;;;;;;;;;11.62;100.00;95797.16;5078159;28;19971;-81
2023/05/16 05:57:08;;;;;;;;;;;;;;;11.69;100.00;95800.47;5086811;28;19974;-82
2023/05/16 05:59:35;;;;;;;;;;;;;;;11.73;100.00;95801.63;5090099;28;20273;-81
2023/05/16 06:02:02;;;;;;;;;;;;;;;11.67;100.00;95799.91;5085568;28;19931;-81
2023/05/16 06:04:30;;;;;;;;;;;;;;;11.65;100.00;95796.66;5084698;28;19971;-81
2023/05/16 06:06:57;;;;;;;;;;;;;;;11.69;100.00;95803.19;5084985;28;19924;-80
2023/05/16 06:09:24;;;;;;;;;;;;;;;11.67;100.00;95797.22;5083235;28;19946;-81
2023/05/16 06:11:51;;;;;;;;;;;;;;;11.62;100.00;95797.16;5087194;28;19927;-81
2023/05/16 06:14:17;;;;;;;;;;;;;;;11.61;100.00;95798.22;5092389;28;19924;-81
2023/05/16 06:16:44;;;;;;;;;;;;;;;11.61;100.00;95784.69;5090591;28;20032;-80
2023/05/16 06:19:14;;;;;;;;;;;;;;;11.63;100.00;95787.97;5092161;28;19973;-81
2023/05/16 06:21:43;;;;;;;;;;;;;;;11.69;100.00;95800.47;5105075;28;19967;-81
2023/05/16 06:24:11;;;;;;;;;;;;;;;11.70;100.00;95799.41;5085615;28;19935;-81
2023/05/16 06:26:37;;;;;;;;;;;;;;;11.74;100.00;95795.97;5095416;28;20082;-81
2023/05/16 06:29:05;;;;;;;;;;;;;;;11.79;100.00;95797.13;5089912;28;19924;-81
2023/05/16 06:31:32;;;;;;;;;;;;;;;11.76;100.00;95806.56;5089617;28;19963;-81
2023/05/16 06:33:58;;;;;;;;;;;;;;;11.88;100.00;95811.84;5090583;28;19962;-81
2023/05/16 06:36:26;;;;;;;;;;;;;;;11.77;100.00;95805.50;5088502;28;19931;-81
2023/05/16 06:38:54;;;;;;;;;;;;;;;11.78;100.00;95806.31;5092924;28;19955;-81
2023/05/16 06:41:22;;;;;;;;;;;;;;;11.78;100.00;95795.50;5087153;28;19924;-81
2023/05/16 06:43:48;;;;;;;;;;;;;;;11.76;100.00;95803.84;5087336;28;19973;-81
2023/05/16 06:46:15;;;;;;;;;;;;;;;11.76;100.00;95803.84;5088736;28;19924;-81
2023/05/16 06:48:42;;;;;;;;;;;;;;;11.74;100.00;95801.41;5086447;28;19924;-80
2023/05/16 06:51:09;;;;;;;;;;;;;;;11.78;100.00;95800.91;5078764;28;19931;-81
2023/05/16 06:53:35;;;;;;;;;;;;;;;11.82;100.00;95799.34;5094683;28;19924;-81
2023/05/16 06:56:04;;;;;;;;;;;;;;;11.78;100.00;95799.03;5088991;28;19977;-81
2023/05/16 06:58:31;;;;;;;;;;;;;;;11.79;100.00;95794.44;5093417;28;19951;-81
2023/05/16 07:00:59;;;;;;;;;;;;;;;11.81;100.00;95800.41;5091555;28;19931;-79
2023/05/16 07:03:25;;;;;;;;;;;;;;;11.75;100.00;95796.81;5101812;28;19955;-79
2023/05/16 07:05:53;;;;;;;;;;;;;;;11.78;100.00;95792.78;5095012;28;19928;-81
2023/05/16 07:08:19;;;;;;;;;;;;;;;11.76;100.00;95801.16;5093344;28;19924;-81
2023/05/16 07:10:46;;;;;;;;;;;;;;;11.74;100.00;95800.53;5083598;28;19928;-81
2023/05/16 07:13:14;;;;;;;;;;;;;;;11.75;100.00;95799.50;5085312;28;19959;-81
2023/05/16 07:15:41;;;;;;;;;;;;;;;11.80;100.00;95799.59;5089140;28;20015;-81
2023/05/16 07:18:08;;;;;;;;;;;;;;;11.75;100.00;95802.22;5096642;28;19950;-81
2023/05/16 07:20:36;;;;;;;;;;;;;;;11.76;100.00;95801.16;5082030;28;19944;-81
2023/05/16 07:23:02;;;;;;;;;;;;;;;11.81;100.00;95793.13;5079566;28;19931;-82
2023/05/16 07:25:29;;;;;;;;;;;;;;;11.84;100.00;95795.31;5088168;28;19923;-81
2023/05/16 07:27:56;;;;;;;;;;;;;;;11.83;100.00;95788.25;5083489;28;19971;-82
2023/05/16 07:30:25;;;;;;;;;;;;;;;11.90;100.00;95788.09;5088830;28;19931;-82
2023/05/16 07:32:51;;;;;;;;;;;;;;;11.96;100.00;95781.66;5086750;28;19978;-81
2023/05/16 07:35:19;;;;;;;;;;;;;;;11.97;100.00;95778.69;5082712;28;19932;-81
2023/05/16 07:37:45;;;;;;;;;;;;;;;11.96;100.00;95787.88;5078703;28;20015;-81
2023/05/16 07:40:13;;;;;;;;;;;;;;;11.99;100.00;95783.88;5079785;28;19986;-81
2023/05/16 07:42:40;;;;;;;;;;;;;;;11.95;100.00;95788.13;5075761;28;19930;-81
2023/05/16 07:45:07;;;;;;;;;;;;;;;12.03;100.00;95787.69;5078188;28;19924;-81
2023/05/16 07:47:35;;;;;;;;;;;;;;;12.04;100.00;95792.03;5075805;28;19935;-81
2023/05/16 07:50:02;;;;;;;;;;;;;;;11.99;100.00;95803.59;5075534;28;19968;-82
2023/05/16 07:52:29;;;;;;;;;;;;;;;12.03;100.00;95801.22;5091820;28;19924;-81
2023/05/16 07:54:57;;;;;;;;;;;;;;;12.05;100.00;95797.19;5078881;28;19971;-82
2023/05/16 07:57:24;;;;;;;;;;;;;;;12.02;100.00;95799.56;5073245;28;19931;-80
2023/05/16 07:59:52;;;;;;;;;;;;;;;11.91;100.00;95801.34;5070545;28;19928;-81
2023/05/16 08:02:18;;;;;;;;;;;;;;;11.87;100.00;95804.81;5081517;28;19925;-82
2023/05/16 08:04:47;;;;;;;;;;;;;;;11.81;100.00;95801.22;5093018;28;20031;-84
2023/05/16 08:07:14;;;;;;;;;;;;;;;11.79;100.00;95807.94;5078616;28;19963;-80
2023/05/16 08:09:41;;;;;;;;;;;;;;;11.75;100.00;95802.22;5080575;28;20028;-78
2023/05/16 08:12:08;;;;;;;;;;;;;;;11.75;100.00;95813.84;5081273;28;19932;-78
2023/05/16 08:14:35;;;;;;;;;;;;;;;11.78;100.00;95809.84;5080057;28;19928;-79
2023/05/16 08:17:02;;;;;;;;;;;;;;;11.74;100.00;95811.34;5083928;28;20026;-80
2023/05/16 08:19:31;;;;;;;;;;;;;;;11.69;100.00;95805.91;5085572;28;19957;-79
2023/05/16 08:21:59;;;;;;;;;;;;;;;11.66;100.00;95809.09;5088786;28;19924;-81
2023/05/16 08:24:26;;;;;;;;;;;;;;;11.68;100.00;95812.38;5081994;28;19925;-79
2023/05/16 08:26:53;;;;;;;;;;;;;;;11.67;100.00;95816.13;5082756;28;19924;-80
2023/05/16 08:29:20;;;;;;;;;;;;;;;11.69;100.00;95809.41;5088023;28;19931;-81
2023/05/16 08:31:47;;;;;;;;;;;;;;;11.71;100.00;95809.19;5083737;28;20051;-79
2023/05/16 08:34:14;;;;;;;;;;;;;;;11.70;100.00;95807.53;5075991;28;19931;-80
2023/05/16 08:36:41;;;;;;;;;;;;;;;11.77;100.00;95810.09;5086169;28;19924;-82
2023/05/16 08:39:10;;;;;;;;;;;;;;;11.78;100.00;95811.72;5100497;28;19924;-80
2023/05/16 08:41:37;;;;;;;;;;;;;;;11.79;100.00;95807.94;5106836;28;19973;-80
2023/05/16 08:44:05;;;;;;;;;;;;;;;11.79;100.00;95803.38;5085778;28;19932;-81
2023/05/16 08:46:34;;;;;;;;;;;;;;;11.84;100.00;95803.41;5080313;28;19931;-79
2023/05/16 08:49:03;;;;;;;;;;;;;;;11.89;100.00;95803.50;5074826;28;19946;-80
2023/05/16 08:51:35;;;;;;;;;;;;;;;11.92;100.00;95802.97;5084214;28;19924;-82
2023/05/16 08:54:21;;;;;;;;;;;;;;;11.94;100.00;95814.38;5085672;28;19924;-86
2023/05/16 08:56:50;;;;;;;;;;;;;;;11.95;100.00;95813.31;5085621;28;19924;-82
2023/05/16 08:59:17;;;;;;;;;;;;;;;11.91;100.00;95816.78;5089858;28;19996;-82
2023/05/16 09:01:50;;;;;;;;;;;;;;;11.92;100.00;95813.78;5084971;28;19924;-84
2023/05/16 09:04:40;;;;;;;;;;;;;;;11.98;100.00;95809.28;5098055;28;19928;-83
2023/05/16 09:07:07;;;;;;;;;;;;;;;12.03;100.00;95810.16;5063253;28;19934;-79
2023/05/16 09:09:35;;;;;;;;;;;;;;;12.05;100.00;95816.13;5084903;28;19983;-81
2023/05/16 09:12:04;;;;;;;;;;;;;;;12.03;100.00;95810.16;5088068;28;19931;-82
2023/05/16 09:14:30;;;;;;;;;;;;;;;12.05;100.00;95808.03;5089678;28;19923;-81
2023/05/16 09:17:07;;;;;;;;;;;;;;;12.09;100.00;95806.44;5079917;28;19924;-84
2023/05/16 09:19:39;;;;;;;;;;;;;;;12.21;100.00;95806.31;5083767;28;19954;-82
2023/05/16 09:22:07;;;;;;;;;;;;;;;12.27;100.00;95808.00;5087066;28;19924;-81
2023/05/16 09:24:33;;;;;;;;;;;;;;;12.34;100.00;95811.31;5087966;28;19986;-81
2023/05/16 09:27:09;;;;;;;;;;;;;;;12.23;100.00;95814.19;5079822;28;19974;-83
2023/05/16 09:29:36;;;;;;;;;;;;;;;12.25;100.00;95817.47;5092641;28;19924;-81
2023/05/16 09:32:10;;;;;;;;;;;;;;;12.23;100.00;95822.28;5079894;28;19987;-81
2023/05/16 09:34:44;;;;;;;;;;;;;;;12.26;100.00;95819.06;5086094;28;20011;-82
2023/05/16 09:37:11;;;;;;;;;;;;;;;12.26;100.00;95830.72;5082195;28;19970;-82
2023/05/16 09:39:40;;;;;;;;;;;;;;;12.27;100.00;95829.66;5081129;28;19954;-81
2023/05/16 09:42:10;;;;;;;;;;;;;;;12.28;100.00;95819.63;5086333;28;19935;-81
2023/05/16 09:44:37;;;;;;;;;;;;;;;12.36;100.00;95830.84;5089263;28;19963;-82
2023/05/16 09:47:04;;;;;;;;;;;;;;;12.44;100.00;95818.72;5074703;28;19924;-81
2023/05/16 09:49:32;;;;;;;;;;;;;;;12.47;100.00;95816.34;5087486;28;19928;-81
2023/05/16 09:52:00;;;;;;;;;;;;;;;12.51;100.00;95806.63;5087205;28;19959;-82
2023/05/16 09:54:32;;;;;;;;;;;;;;;12.62;100.00;95807.53;5080093;28;19939;-82
2023/05/16 09:56:59;;;;;;;;;;;;;;;12.69;100.00;95812.75;5089083;28;19962;-81
2023/05/16 09:59:28;;;;;;;;;;;;;;;12.73;100.00;95814.69;5083717;28;19931;-81
2023/05/16 10:01:57;;;;;;;;;;;;;;;12.77;100.00;95812.28;5081351;28;19987;-82
2023/05/16 10:04:24;;;;;;;;;;;;;;;12.85;100.00;95818.06;5085783;28;19924;-83
2023/05/16 10:06:51;;;;;;;;;;;;;;;12.96;100.00;95820.84;5090683;28;19990;-82
2023/05/16 10:09:18;;;;;;;;;;;;;;;13.09;100.00;95817.72;5087250;28;19962;-83
2023/05/16 10:11:48;;;;;;;;;;;;;;;13.13;100.00;95818.84;5083908;28;19924;-82
2023/05/16 10:14:17;;;;;;;;;;;;;;;13.19;100.00;95824.06;5083542;28;19932;-82
2023/05/16 10:16:47;;;;;;;;;;;;;;;13.14;100.00;95829.47;5085555;28;20018;-82
2023/05/16 10:19:15;;;;;;;;;;;;;;;13.06;100.00;95826.38;5085831;28;19924;-82
2023/05/16 10:21:45;;;;;;;;;;;;;;;12.85;100.00;95833.50;5087439;28;19974;-82
2023/05/16 10:24:15;;;;;;;;;;;;;;;12.80;100.00;95836.97;5093263;28;19956;-81
2023/05/16 10:26:43;;;;;;;;;;;;;;;12.72;100.00;95823.91;5090032;28;19940;-81
2023/05/16 10:29:10;;;;;;;;;;;;;;;12.71;100.00;95824.97;5084797;28;19925;-81
2023/05/16 10:31:38;;;;;;;;;;;;;;;12.50;100.00;95825.84;5070466;28;19928;-81
2023/05/16 10:34:06;;;;;;;;;;;;;;;12.50;100.00;95829.34;5062483;28;20023;-82
2023/05/16 10:36:34;;;;;;;;;;;;;;;12.59;100.00;95829.72;5078733;28;19928;-81
2023/05/16 10:39:02;;;;;;;;;;;;;;;12.58;100.00;95824.56;5058948;28;20000;-81
2023/05/16 10:41:30;;;;;;;;;;;;;;;12.55;100.00;95827.78;5058666;28;19946;-81
2023/05/16 10:43:57;;;;;;;;;;;;;;;12.53;100.00;95819.91;5065929;28;20005;-82
2023/05/16 10:46:24;;;;;;;;;;;;;;;12.76;100.00;95824.22;5066110;28;19928;-81
2023/05/16 10:48:51;;;;;;;;;;;;;;;12.95;100.00;95819.22;5057705;28;19932;-81
2023/05/16 10:51:33;;;;;;;;;;;;;;;13.16;100.00;95815.66;5066497;28;19924;-81
2023/05/16 10:54:06;;;;;;;;;;;;;;;13.39;100.00;95815.28;5069443;28;19932;-80
2023/05/16 10:56:33;;;;;;;;;;;;;;;13.70;100.00;95818.97;5069541;28;19978;-81
2023/05/16 10:59:00;;;;;;;;;;;;;;;13.88;100.00;95815.81;5058190;28;19932;-79
2023/05/16 11:01:28;;;;;;;;;;;;;;;14.13;100.00;95812.41;5055370;28;20134;-79
2023/05/16 11:04:10;;;;;;;;;;;;;;;14.42;100.00;95804.69;5055512;28;19931;-80
2023/05/16 11:06:46;;;;;;;;;;;;;;;14.42;100.00;95817.44;5062373;28;19929;-80
2023/05/16 11:09:26;;;;;;;;;;;;;;;14.16;100.00;95820.03;5063579;28;20023;-80
2023/05/16 11:11:57;;;;;;;;;;;;;;;14.07;100.00;95810.75;5063681;28;19924;-81
2023/05/16 11:14:24;;;;;;;;;;;;;;;13.93;100.00;95807.72;5063307;28;19978;-82
2023/05/16 11:16:52;;;;;;;;;;;;;;;13.91;100.00;95800.94;5059168;28;19936;-81
2023/05/16 11:19:29;;;;;;;;;;;;;;;13.93;100.00;95794.16;5060248;28;20008;-82
2023/05/16 11:22:10;;;;;;;;;;;;;;;13.87;100.00;95795.19;5064776;28;19925;-81
2023/05/16 11:24:51;;;;;;;;;;;;;;;13.86;100.00;95795.47;5067776;28;19928;-82
2023/05/16 11:27:29;;;;;;;;;;;;;;;13.93;100.00;95796.06;5085273;28;19973;-82
2023/05/16 11:29:59;;;;;;;;;;;;;;;13.95;100.00;95799.31;5083755;28;19924;-81
2023/05/16 11:32:26;;;;;;;;;;;;;;;13.97;100.00;95802.56;5088828;28;19962;-79
2023/05/16 11:34:53;;;;;;;;;;;;;;;13.90;100.00;95799.28;5080371;28;19924;-81
2023/05/16 11:37:21;;;;;;;;;;;;;;;13.93;100.00;95802.31;5089984;28;19938;-80
2023/05/16 11:39:49;;;;;;;;;;;;;;;13.98;100.00;95805.03;5084701;28;19923;-81
2023/05/16 11:42:17;;;;;;;;;;;;;;;14.01;100.00;95806.41;5086333;28;20023;-81
2023/05/16 11:44:44;;;;;;;;;;;;;;;13.98;100.00;95809.63;5083405;28;19928;-81
2023/05/16 11:47:11;;;;;;;;;;;;;;;13.96;100.00;95807.19;5082377;28;19932;-80
2023/05/16 11:49:38;;;;;;;;;;;;;;;14.01;100.00;95811.84;5084680;28;19924;-80
2023/05/16 11:52:05;;;;;;;;;;;;;;;14.10;100.00;95812.97;5086100;28;19928;-80
2023/05/16 11:54:33;;;;;;;;;;;;;;;14.14;100.00;95819.47;5087647;28;19950;-80
2023/05/16 11:57:02;;;;;;;;;;;;;;;14.15;100.00;95814.88;5082573;28;19931;-80
2023/05/16 11:59:29;;;;;;;;;;;;;;;14.22;100.00;95810.00;5084726;28;19936;-81
2023/05/16 12:01:55;;;;;;;;;;;;;;;14.17;100.00;95813.53;5083766;28;19994;-80
2023/05/16 12:04:22;;;;;;;;;;;;;;;14.15;100.00;95820.28;5086674;28;19947;-80
2023/05/16 12:06:58;;;;;;;;;;;;;;;14.18;100.00;95814.34;5081140;28;19946;-80
2023/05/16 12:09:25;;;;;;;;;;;;;;;14.17;100.00;95815.44;5087960;28;19931;-81
2023/05/16 12:11:52;;;;;;;;;;;;;;;14.11;100.00;95819.22;5089193;28;19987;-80
2023/05/16 12:14:21;;;;;;;;;;;;;;;13.94;100.00;95819.41;5082407;28;19928;-80
2023/05/16 12:16:48;;;;;;;;;;;;;;;13.77;100.00;95810.63;5084542;28;20090;-80
2023/05/16 12:19:15;;;;;;;;;;;;;;;13.68;100.00;95814.91;5088135;28;20007;-80
2023/05/16 12:21:41;;;;;;;;;;;;;;;13.64;100.00;95820.84;5090174;28;19999;-81
2023/05/16 12:24:09;;;;;;;;;;;;;;;13.57;100.00;95825.69;5082245;28;19928;-80
2023/05/16 12:26:36;;;;;;;;;;;;;;;13.44;100.00;95815.28;5090111;28;19923;-81
2023/05/16 12:29:04;;;;;;;;;;;;;;;13.38;100.00;95818.25;5073348;28;19928;-81
2023/05/16 12:31:36;;;;;;;;;;;;;;;13.37;100.00;95814.69;5057251;28;19924;-81
2023/05/16 12:34:03;;;;;;;;;;;;;;;13.39;100.00;95817.97;5065007;28;19967;-81
2023/05/16 12:36:32;;;;;;;;;;;;;;;13.37;100.00;95819.31;5089827;28;19924;-81
2023/05/16 12:39:00;;;;;;;;;;;;;;;13.27;100.00;95820.88;5068376;28;20027;-81
2023/05/16 12:41:27;;;;;;;;;;;;;;;13.26;100.00;95823.88;5065387;28;19925;-80